Time;durP1;ratioP1;P1;durP2;ratioP2;P2;SDS_P1;SDS_P2;PMS_P1;PMS_P2;Temp;Humidity;BMP_temperature;BMP_pressure;BME280_temperature;BME280_humidity;BME280_pressure;Samples;Min_cycle;Max_cycle;Signal;HPM_P1;HPM_P2
2022/03/23 04:55:31;;;;;;;24.27;15.48;;;;;;;3.12;54.85;102032.94;6036441;28;20242;-87
2022/03/23 04:58:35;;;;;;;22.48;15.77;;;;;;;3.17;54.63;102036.19;5369585;33;33668;-87
2022/03/23 05:01:38;;;;;;;25.12;16.20;;;;;;;3.16;56.17;102044.28;5376885;33;34095;-88
2022/03/23 05:04:41;;;;;;;23.05;16.17;;;;;;;3.14;55.77;102044.38;5376271;33;34222;-87
2022/03/23 05:07:45;;;;;;;22.62;15.45;;;;;;;3.29;54.24;102037.28;5374394;33;34925;-87
2022/03/23 05:10:48;;;;;;;23.60;15.20;;;;;;;3.45;53.00;102049.69;5364753;33;34044;-87
2022/03/23 05:13:51;;;;;;;25.02;15.75;;;;;;;3.60;52.56;102044.34;5363473;33;33845;-87
2022/03/23 05:16:54;;;;;;;25.55;15.38;;;;;;;3.68;52.75;102051.84;5363092;33;33945;-87
2022/03/23 05:19:57;;;;;;;27.62;14.82;;;;;;;3.86;52.53;102052.53;5364004;33;34513;-87
2022/03/23 05:23:00;;;;;;;23.90;14.65;;;;;;;4.06;51.89;102056.66;5353470;33;34596;-87
2022/03/23 05:26:03;;;;;;;23.55;15.32;;;;;;;4.18;52.46;102045.22;5363381;33;34730;-87
2022/03/23 05:29:12;;;;;;;24.35;15.43;;;;;;;4.25;52.47;102051.91;5363610;33;33935;-87
2022/03/23 05:32:18;;;;;;;27.05;15.50;;;;;;;4.55;51.77;102042.94;5363304;33;34728;-87
2022/03/23 05:35:21;;;;;;;28.40;15.73;;;;;;;4.78;51.13;102044.97;5363749;33;35103;-87
2022/03/23 05:38:23;;;;;;;26.27;15.82;;;;;;;5.00;50.80;102047.09;5363034;33;33966;-88
2022/03/23 05:41:28;;;;;;;24.10;14.90;;;;;;;5.20;50.81;102051.09;5362752;33;33307;-87
2022/03/23 05:44:31;;;;;;;27.42;15.20;;;;;;;5.36;50.26;102050.09;5364208;33;33576;-87
2022/03/23 05:47:34;;;;;;;28.35;14.23;;;;;;;5.55;49.49;102050.56;5362855;33;34592;-87
2022/03/23 05:50:37;;;;;;;22.77;14.15;;;;;;;5.72;49.46;102049.41;5362813;33;33517;-87
2022/03/23 05:53:41;;;;;;;22.40;14.43;;;;;;;5.78;48.58;102058.84;5362514;33;35200;-87
2022/03/23 05:56:43;;;;;;;25.62;13.25;;;;;;;5.89;47.73;102054.44;5362028;33;34131;-87
2022/03/23 05:59:47;;;;;;;29.95;13.38;;;;;;;6.13;46.16;102051.91;5362669;33;33536;-87
2022/03/23 06:02:50;;;;;;;20.75;12.57;;;;;;;6.37;44.93;102051.13;5365098;33;33891;-87
2022/03/23 06:05:54;;;;;;;26.52;12.57;;;;;;;6.51;44.48;102048.34;5364665;33;34055;-89
2022/03/23 06:08:56;;;;;;;24.23;12.45;;;;;;;6.81;43.53;102055.09;5364812;33;35609;-91
2022/03/23 06:12:01;;;;;;;22.30;11.07;;;;;;;6.96;42.98;102054.00;5364950;33;35263;-92
2022/03/23 06:15:07;;;;;;;25.30;10.38;;;;;;;7.13;42.14;102049.19;5367672;33;34449;-91
2022/03/23 06:18:14;;;;;;;20.98;10.65;;;;;;;7.30;41.70;102043.44;5413602;27;34976;-87
2022/03/23 06:21:17;;;;;;;21.95;11.32;;;;;;;7.58;41.21;102052.06;5361623;33;33842;-88
2022/03/23 06:24:20;;;;;;;21.77;10.77;;;;;;;7.64;40.81;102049.78;5363555;33;33866;-89
2022/03/23 06:27:25;;;;;;;21.50;11.00;;;;;;;7.73;39.90;102049.06;5363668;33;33459;-88
2022/03/23 06:30:31;;;;;;;23.23;11.10;;;;;;;7.80;39.32;102043.22;5364817;33;34730;-88
2022/03/23 06:33:34;;;;;;;23.02;11.30;;;;;;;7.89;39.33;102054.06;5368205;33;34661;-87
2022/03/23 06:36:37;;;;;;;22.92;10.50;;;;;;;8.22;39.02;102057.81;5366983;33;34009;-88
2022/03/23 06:39:39;;;;;;;22.80;10.35;;;;;;;8.51;37.60;102050.16;5367085;33;34170;-88
2022/03/23 06:42:42;;;;;;;18.00;9.75;;;;;;;8.51;36.95;102046.59;5367924;33;34160;-87
2022/03/23 06:45:45;;;;;;;18.00;9.95;;;;;;;8.63;36.59;102046.47;5364099;33;34203;-87
2022/03/23 06:48:48;;;;;;;24.92;10.77;;;;;;;8.81;36.13;102048.62;5364393;33;34300;-87
2022/03/23 06:51:51;;;;;;;19.40;10.02;;;;;;;9.15;35.38;102049.38;5363976;33;33620;-89
2022/03/23 06:54:54;;;;;;;19.75;10.20;;;;;;;9.30;34.71;102045.44;5363561;33;34472;-88
2022/03/23 06:57:57;;;;;;;22.60;11.43;;;;;;;9.45;34.45;102051.34;5363365;33;34040;-87
2022/03/23 07:01:00;;;;;;;19.58;11.45;;;;;;;9.56;33.82;102045.03;5348552;33;34561;-87
2022/03/23 07:04:03;;;;;;;15.85;10.63;;;;;;;9.82;33.94;102044.66;5349561;33;33811;-87
2022/03/23 07:07:06;;;;;;;22.52;11.85;;;;;;;10.02;33.48;102042.94;5346918;33;33889;-87
2022/03/23 07:10:09;;;;;;;24.02;13.13;;;;;;;10.11;33.32;102040.28;5345220;33;34074;-89
2022/03/23 07:13:14;;;;;;;22.58;12.85;;;;;;;10.23;33.40;102035.66;5412562;27;34359;-88
2022/03/23 07:16:16;;;;;;;24.75;12.60;;;;;;;10.47;33.17;102035.41;5422572;27;35108;-87
2022/03/23 07:19:19;;;;;;;24.08;12.30;;;;;;;10.64;32.46;102031.19;5377215;33;34506;-89
2022/03/23 07:22:22;;;;;;;22.62;12.10;;;;;;;10.84;32.50;102040.16;5368270;33;34719;-87
2022/03/23 07:25:25;;;;;;;23.77;12.05;;;;;;;11.03;32.25;102042.06;5356164;33;33428;-87
2022/03/23 07:28:29;;;;;;;25.77;12.77;;;;;;;11.13;31.74;102038.34;5370349;27;33705;-88
2022/03/23 07:31:33;;;;;;;24.52;12.95;;;;;;;11.28;31.94;102035.25;5339257;33;35125;-88
2022/03/23 07:34:37;;;;;;;24.12;12.60;;;;;;;11.51;31.88;102046.59;5344093;33;33537;-88
2022/03/23 07:37:40;;;;;;;21.48;12.63;;;;;;;11.75;31.43;102029.94;5340121;33;33419;-88
2022/03/23 07:40:43;;;;;;;24.98;12.13;;;;;;;11.93;30.66;102035.47;5347273;33;35452;-88
2022/03/23 07:43:46;;;;;;;23.65;12.18;;;;;;;11.95;30.55;102034.34;5344146;33;34151;-88
2022/03/23 07:46:49;;;;;;;19.17;11.80;;;;;;;12.24;29.98;102028.00;5336833;33;34327;-88
2022/03/23 07:49:52;;;;;;;20.23;11.57;;;;;;;12.69;29.12;102028.06;5342519;33;34660;-88
2022/03/23 07:52:55;;;;;;;26.02;12.23;;;;;;;12.46;28.83;102035.72;5343274;33;34635;-88
2022/03/23 07:55:58;;;;;;;26.27;11.88;;;;;;;12.67;28.88;102030.06;5339595;33;33415;-88
2022/03/23 07:59:01;;;;;;;22.98;12.75;;;;;;;12.97;28.72;102030.72;5340144;33;33776;-88
2022/03/23 08:02:04;;;;;;;22.40;13.25;;;;;;;13.39;28.32;102025.56;5342126;33;33807;-88
2022/03/23 08:05:09;;;;;;;23.55;13.02;;;;;;;13.60;27.92;102027.09;5341997;33;33649;-88
2022/03/23 08:08:13;;;;;;;25.23;13.80;;;;;;;13.65;27.47;102032.03;5343685;33;34765;-88
2022/03/23 08:11:16;;;;;;;25.70;13.10;;;;;;;13.71;27.36;102026.84;5340308;33;35329;-88
2022/03/23 08:14:18;;;;;;;22.00;13.00;;;;;;;13.85;26.93;102030.84;5343649;33;34643;-88
2022/03/23 08:17:22;;;;;;;20.45;12.80;;;;;;;14.10;27.09;102029.16;5343689;33;33865;-88
2022/03/23 08:20:35;;;;;;;19.65;12.30;;;;;;;14.07;26.72;102027.59;5340719;33;38234;-91
2022/03/23 08:23:40;;;;;;;21.98;13.15;;;;;;;14.15;26.82;102026.78;5344155;33;33978;-89
2022/03/23 08:26:43;;;;;;;24.80;12.50;;;;;;;14.45;26.57;102027.25;5327234;33;33969;-88
2022/03/23 08:29:46;;;;;;;19.95;13.48;;;;;;;14.58;26.33;102021.44;5351131;33;34581;-89
2022/03/23 08:32:49;;;;;;;25.02;13.77;;;;;;;14.71;26.37;102016.37;5367302;33;33715;-89
2022/03/23 08:35:52;;;;;;;25.42;13.20;;;;;;;14.90;25.84;102021.53;5362819;33;34830;-89
2022/03/23 08:38:55;;;;;;;22.33;13.38;;;;;;;15.15;25.83;102013.41;5366045;33;33950;-89
2022/03/23 08:41:58;;;;;;;21.48;13.52;;;;;;;15.15;25.42;102010.72;5376454;33;35067;-89
2022/03/23 08:45:04;;;;;;;21.37;13.25;;;;;;;15.48;25.58;102010.75;5360771;33;34770;-89
2022/03/23 08:48:09;;;;;;;27.40;13.40;;;;;;;15.48;25.05;102011.59;5359681;33;34266;-89
2022/03/23 08:51:12;;;;;;;21.40;12.93;;;;;;;15.42;25.26;102007.69;5353507;33;239849;-89
2022/03/23 08:54:15;;;;;;;22.33;12.63;;;;;;;15.62;25.17;102008.19;5360550;33;34275;-84
2022/03/23 08:57:19;;;;;;;24.52;12.88;;;;;;;15.99;25.54;102005.94;5360596;33;33814;-87
2022/03/23 09:00:23;;;;;;;22.05;12.77;;;;;;;16.17;24.44;102001.12;5353859;33;34559;-85
2022/03/23 09:03:26;;;;;;;21.35;12.65;;;;;;;16.37;24.15;102004.28;5365245;33;33959;-87
2022/03/23 09:06:30;;;;;;;18.55;12.73;;;;;;;16.41;23.97;101994.78;5363092;33;34187;-87
2022/03/23 09:09:33;;;;;;;20.58;12.48;;;;;;;16.53;23.93;101993.34;5362703;33;34514;-86
2022/03/23 09:12:37;;;;;;;18.83;11.65;;;;;;;16.49;23.84;101989.28;5361201;33;34618;-86
2022/03/23 09:15:40;;;;;;;20.65;11.35;;;;;;;16.66;23.89;101989.19;5361828;33;33346;-87
2022/03/23 09:18:43;;;;;;;17.37;10.85;;;;;;;16.80;23.64;101987.62;5366874;33;33999;-87
2022/03/23 09:21:50;;;;;;;16.80;10.30;;;;;;;16.90;23.25;101986.34;5364550;33;33802;-87
2022/03/23 09:24:53;;;;;;;20.40;10.45;;;;;;;17.00;22.88;101983.41;5366780;33;33612;-88
2022/03/23 09:27:56;;;;;;;16.25;9.73;;;;;;;17.16;23.00;101972.37;5400464;27;33364;-87
2022/03/23 09:31:02;;;;;;;20.62;9.57;;;;;;;17.21;22.65;101977.31;5347717;33;33915;-87
2022/03/23 09:34:05;;;;;;;14.63;8.88;;;;;;;17.36;22.07;101975.47;5392595;27;33948;-88
2022/03/23 09:40:32;;;;;;;22.23;10.27;;;;;;;17.48;23.07;101964.12;5357430;33;33442;-87
2022/03/23 09:43:36;;;;;;;13.38;9.23;;;;;;;17.63;21.68;101965.00;5391235;27;34319;-87
2022/03/23 09:46:43;;;;;;;17.87;9.05;;;;;;;17.89;21.63;101968.16;5373361;27;33400;-87
2022/03/23 09:49:46;;;;;;;24.90;8.90;;;;;;;17.86;21.18;101965.81;5407004;27;33934;-86
2022/03/23 09:52:51;;;;;;;36.97;8.30;;;;;;;17.92;21.68;101966.09;5410179;27;34721;-87
2022/03/23 09:55:55;;;;;;;21.17;9.88;;;;;;;17.84;20.92;101967.91;5348780;33;34300;-86
2022/03/23 09:58:58;;;;;;;16.02;9.55;;;;;;;17.82;21.71;101956.31;5364212;33;34202;-87
2022/03/23 10:02:01;;;;;;;20.62;9.80;;;;;;;17.63;21.64;101952.22;5364316;33;33809;-87
2022/03/23 10:05:42;;;;;;;27.15;10.13;;;;;;;17.78;21.78;101943.25;5352420;33;34703;-90
2022/03/23 10:09:25;;;;;;;21.65;10.10;;;;;;;18.06;21.85;101947.03;5348260;33;33938;-87
2022/03/23 10:13:05;;;;;;;18.77;9.23;;;;;;;18.29;21.00;101944.19;5355167;33;34035;-87
2022/03/23 10:16:46;;;;;;;14.77;9.35;;;;;;;18.19;21.07;101945.50;5362112;33;35248;-87
2022/03/23 10:19:49;;;;;;;21.30;9.32;;;;;;;18.13;21.07;101938.91;5356146;33;35225;-87
2022/03/23 10:22:54;;;;;;;21.87;9.60;;;;;;;18.27;21.17;101935.34;5345596;33;34322;-86
2022/03/23 10:26:10;;;;;;;18.90;9.95;;;;;;;18.62;20.52;101932.81;5345443;33;35088;-89
2022/03/23 10:29:20;;;;;;;29.92;9.02;;;;;;;18.94;20.37;101930.66;5348026;33;34012;-87
2022/03/23 10:32:23;;;;;;;21.83;9.00;;;;;;;18.94;20.02;101928.75;5348316;33;34130;-87
2022/03/23 10:35:40;;;;;;;30.40;9.82;;;;;;;19.17;19.76;101923.09;5345277;33;33953;-87
2022/03/23 10:38:43;;;;;;;19.50;9.38;;;;;;;19.47;21.00;101914.72;5346045;33;33994;-87
2022/03/23 10:42:04;;;;;;;15.30;8.65;;;;;;;19.58;19.64;101905.13;5348984;33;34200;-87
2022/03/23 10:45:13;;;;;;;14.77;8.32;;;;;;;19.03;19.30;101899.44;5344347;33;34587;-87
2022/03/23 10:48:17;;;;;;;17.85;9.30;;;;;;;19.19;19.49;101899.19;5343240;33;34942;-87
2022/03/23 10:51:33;;;;;;;17.42;8.90;;;;;;;19.59;20.91;101894.00;5345612;33;33828;-87
2022/03/23 10:54:36;;;;;;;14.38;7.95;;;;;;;20.14;19.33;101883.16;5342652;33;34258;-87
2022/03/23 10:57:55;;;;;;;14.55;7.57;;;;;;;20.36;18.60;101882.00;5344608;33;34625;-87
2022/03/23 11:01:03;;;;;;;16.17;8.13;;;;;;;20.86;18.22;101878.97;5345674;33;34052;-87
2022/03/23 11:04:09;;;;;;;;;;;;;;;21.10;17.78;101871.16;5347849;33;33719;-88
2022/03/23 11:07:28;;;;;;;14.10;8.35;;;;;;;21.47;17.37;101870.53;5344025;33;34734;-87
2022/03/23 11:17:29;;;;;;;17.60;7.57;;;;;;;21.65;17.46;101856.16;5343253;33;35154;-87
2022/03/23 11:20:52;;;;;;;12.90;6.40;;;;;;;22.26;15.61;101849.38;5345335;33;34013;-87
2022/03/23 11:23:55;;;;;;;8.18;5.47;;;;;;;22.47;15.02;101842.72;5340623;33;34217;-87
2022/03/23 11:26:58;;;;;;;13.60;7.80;;;;;;;22.58;15.17;101844.75;5342286;33;35032;-87
2022/03/23 11:30:01;;;;;;;15.02;7.03;;;;;;;23.11;15.54;101838.03;5343898;33;33573;-88
2022/03/23 11:33:10;;;;;;;10.55;5.95;;;;;;;23.45;14.96;101831.09;5352331;33;34696;-87
2022/03/23 11:36:13;;;;;;;14.30;7.00;;;;;;;24.13;13.59;101819.09;5359016;33;35265;-88
2022/03/23 11:39:22;;;;;;;12.73;6.30;;;;;;;24.87;13.87;101816.91;5348230;33;32389;-87
2022/03/23 11:42:27;;;;;;;13.15;7.22;;;;;;;25.48;12.64;101817.53;5343740;33;33891;-87
2022/03/23 11:45:30;;;;;;;15.65;7.53;;;;;;;25.52;13.55;101804.91;5344988;33;34212;-87
2022/03/23 11:48:39;;;;;;;13.25;6.87;;;;;;;25.44;14.08;101802.53;5342372;33;33787;-87
2022/03/23 11:52:01;;;;;;;11.63;6.20;;;;;;;26.08;12.56;101801.66;5333775;33;33844;-87
2022/03/23 11:55:39;;;;;;;10.68;5.30;;;;;;;27.14;11.15;101791.62;5342374;33;34439;-87
2022/03/23 11:58:42;;;;;;;15.35;5.55;;;;;;;27.98;10.45;101775.84;5335991;33;35083;-91
2022/03/23 12:01:46;;;;;;;11.82;6.65;;;;;;;28.90;9.92;101768.34;5345524;33;34129;-91
2022/03/23 12:05:22;;;;;;;13.30;7.03;;;;;;;30.43;9.79;101770.94;5354181;33;34320;-91
2022/03/23 12:08:54;;;;;;;10.30;5.05;;;;;;;30.97;9.75;101772.28;5359735;33;34281;-88
2022/03/23 12:11:58;;;;;;;9.13;5.12;;;;;;;31.31;8.29;101773.31;5359169;33;34067;-88
2022/03/23 12:15:28;;;;;;;9.82;5.43;;;;;;;32.00;8.32;101760.50;5346445;33;34471;-88
2022/03/23 12:18:38;;;;;;;7.82;4.80;;;;;;;32.42;7.61;101747.09;5343117;33;34281;-88
2022/03/23 12:21:53;;;;;;;8.15;4.93;;;;;;;32.39;7.96;101745.72;5347567;33;33661;-88
2022/03/23 12:25:12;;;;;;;7.62;4.60;;;;;;;32.94;7.76;101749.13;5345388;33;35036;-86
2022/03/23 12:28:18;;;;;;;9.55;6.22;;;;;;;34.07;6.62;101733.72;5349683;33;35059;-87
2022/03/23 12:31:35;;;;;;;18.35;7.15;;;;;;;33.59;7.80;101736.66;5353047;33;34500;-86
2022/03/23 12:34:43;;;;;;;10.20;6.68;;;;;;;32.55;8.09;101734.44;5346788;33;33873;-90
2022/03/23 12:37:49;;;;;;;14.05;6.07;;;;;;;33.74;7.43;101730.84;5347172;33;35151;-87
2022/03/23 12:41:02;;;;;;;13.32;6.05;;;;;;;34.68;7.08;101724.31;5348914;33;32682;-87
2022/03/23 12:44:11;;;;;;;9.50;6.20;;;;;;;34.27;7.26;101715.78;5345216;33;34178;-87
2022/03/23 12:47:25;;;;;;;12.07;6.45;;;;;;;34.68;7.34;101720.69;5339457;33;34236;-87
2022/03/23 13:00:49;;;;;;;14.18;5.30;;;;;;;34.35;6.87;101695.53;5335628;33;34000;-87
2022/03/23 13:03:54;;;;;;;14.07;6.00;;;;;;;34.93;6.76;101691.41;5335938;33;34107;-88
2022/03/23 13:06:57;;;;;;;9.05;5.80;;;;;;;34.88;6.40;101697.09;5336392;33;33880;-88
2022/03/23 13:10:14;;;;;;;10.52;5.93;;;;;;;34.39;6.69;101690.16;5334452;33;33380;-87
2022/03/23 13:13:18;;;;;;;8.30;6.12;;;;;;;33.59;7.11;101690.00;5340387;33;34089;-87
2022/03/23 13:16:27;;;;;;;11.25;6.03;;;;;;;33.41;7.15;101682.44;5344153;33;34374;-91
2022/03/23 13:19:31;;;;;;;12.13;6.20;;;;;;;33.94;6.89;101673.81;5340586;33;35472;-91
2022/03/23 13:22:38;;;;;;;8.13;5.55;;;;;;;34.04;6.94;101676.47;5340732;33;34147;-88
2022/03/23 13:25:42;;;;;;;11.82;6.10;;;;;;;35.02;6.29;101674.69;5347054;33;34878;-87
2022/03/23 13:28:48;;;;;;;11.32;5.93;;;;;;;35.97;6.10;101663.59;5346221;33;33519;-87
2022/03/23 13:31:51;;;;;;;10.82;5.85;;;;;;;36.31;5.57;101663.84;5346822;33;34032;-87
2022/03/23 13:34:56;;;;;;;9.60;5.37;;;;;;;33.59;6.72;101661.25;5344819;33;34548;-88
2022/03/23 13:38:19;;;;;;;11.12;5.45;;;;;;;33.40;6.76;101659.22;5342623;33;33964;-87
2022/03/23 13:44:59;;;;;;;9.45;5.78;;;;;;;35.04;6.23;101647.22;5339712;33;34009;-88
2022/03/23 13:48:09;;;;;;;14.70;5.80;;;;;;;33.71;6.66;101644.03;5340907;33;33981;-88
2022/03/23 13:51:11;;;;;;;10.75;5.85;;;;;;;35.30;5.84;101648.31;5338100;33;33903;-87
2022/03/23 13:54:18;;;;;;;9.38;5.05;;;;;;;36.33;5.77;101636.31;5342184;33;34521;-88
2022/03/23 13:57:23;;;;;;;8.15;4.90;;;;;;;37.28;5.32;101634.19;5351172;33;33817;-88
2022/03/23 14:00:27;;;;;;;9.10;5.12;;;;;;;37.09;5.12;101626.03;5351859;33;34115;-88
2022/03/23 14:03:35;;;;;;;12.10;5.32;;;;;;;36.12;5.37;101620.34;5351495;33;34293;-88
2022/03/23 14:06:43;;;;;;;7.22;5.20;;;;;;;37.15;5.29;101616.31;5346092;33;33587;-88
2022/03/23 14:09:48;;;;;;;11.02;5.50;;;;;;;35.18;5.80;101604.06;5350396;33;34178;-88
2022/03/23 14:12:51;;;;;;;10.25;5.43;;;;;;;34.70;6.21;101603.72;5348593;33;33765;-88
2022/03/23 14:16:09;;;;;;;9.10;5.43;;;;;;;33.47;6.37;101599.41;5350342;33;34840;-91
2022/03/23 14:19:13;;;;;;;9.45;5.62;;;;;;;33.97;6.32;101606.16;5348879;33;34150;-91
2022/03/23 14:22:19;;;;;;;8.52;5.37;;;;;;;34.67;6.17;101590.34;5352535;33;35109;-92
2022/03/23 14:25:24;;;;;;;7.80;4.90;;;;;;;34.39;6.46;101595.91;5354989;33;33566;-89
2022/03/23 14:28:27;;;;;;;9.40;5.57;;;;;;;34.09;6.70;101589.75;5352540;33;33448;-88
2022/03/23 14:31:31;;;;;;;9.07;5.53;;;;;;;34.71;6.72;101591.38;5353836;33;33518;-89
2022/03/23 14:34:36;;;;;;;10.55;5.10;;;;;;;33.99;6.24;101583.47;5350885;33;33564;-88
2022/03/23 14:37:48;;;;;;;15.07;6.05;;;;;;;31.36;7.34;101586.84;5345571;33;33294;-87
2022/03/23 14:40:54;;;;;;;9.55;5.75;;;;;;;30.39;7.84;101584.47;5342724;33;34074;-88
2022/03/23 14:43:58;;;;;;;7.18;5.22;;;;;;;28.14;8.92;101581.06;5350228;33;33918;-87
2022/03/23 14:47:09;;;;;;;15.23;5.60;;;;;;;25.93;10.17;101584.19;5338887;33;33653;-87
2022/03/23 14:50:17;;;;;;;61.10;8.80;;;;;;;24.30;11.90;101576.22;5345701;33;33826;-87
2022/03/23 14:53:22;;;;;;;105.95;12.10;;;;;;;23.25;12.37;101572.16;5344728;33;33494;-86
2022/03/23 14:56:25;;;;;;;31.70;7.32;;;;;;;22.47;12.74;101571.00;5348333;33;34027;-87
2022/03/23 14:59:31;;;;;;;14.43;6.40;;;;;;;21.81;13.27;101566.13;5343639;33;33799;-87
2022/03/23 15:02:36;;;;;;;11.30;6.10;;;;;;;21.20;13.69;101568.38;5344837;33;33911;-87
2022/03/23 15:15:47;;;;;;;13.82;6.43;;;;;;;19.85;15.30;101556.31;5340861;33;33511;-87
2022/03/23 15:18:50;;;;;;;14.57;6.35;;;;;;;19.62;14.92;101551.22;5340040;33;34654;-87
2022/03/23 15:21:58;;;;;;;24.17;6.45;;;;;;;19.62;14.45;101549.34;5344744;33;34654;-89
2022/03/23 15:25:01;;;;;;;11.10;6.32;;;;;;;19.39;15.00;101537.97;5345751;33;35234;-91
2022/03/23 15:28:04;;;;;;;10.18;6.32;;;;;;;19.28;14.64;101538.59;5342511;33;35663;-91
2022/03/23 15:31:07;;;;;;;22.33;7.20;;;;;;;19.13;14.84;101534.16;5344248;33;34804;-87
2022/03/23 15:34:11;;;;;;;13.90;6.12;;;;;;;18.98;15.58;101539.78;5343126;33;33660;-86
2022/03/23 15:37:19;;;;;;;11.95;6.10;;;;;;;18.76;14.94;101533.59;5345944;33;34980;-87
2022/03/23 15:40:24;;;;;;;9.43;6.40;;;;;;;18.58;14.86;101531.41;5345612;33;34623;-87
2022/03/23 15:43:28;;;;;;;6.95;5.45;;;;;;;18.39;15.08;101526.66;5343838;33;33938;-87
2022/03/23 15:46:31;;;;;;;11.20;6.03;;;;;;;18.28;15.06;101536.28;5343286;33;34049;-87
2022/03/23 15:49:35;;;;;;;10.90;6.15;;;;;;;18.28;15.27;101533.56;5343298;33;34530;-87
2022/03/23 15:52:39;;;;;;;13.30;6.57;;;;;;;18.20;16.61;101530.12;5342532;33;33808;-87
2022/03/23 15:55:41;;;;;;;17.37;6.90;;;;;;;18.01;16.72;101526.22;5343663;33;34830;-87
2022/03/23 15:58:44;;;;;;;16.70;8.27;;;;;;;17.89;16.67;101523.19;5342593;33;34113;-87
2022/03/23 16:01:47;;;;;;;13.98;7.15;;;;;;;17.75;16.38;101524.09;5342063;33;34069;-87
2022/03/23 16:04:51;;;;;;;9.45;6.20;;;;;;;17.56;16.10;101520.19;5347394;33;34575;-87
2022/03/23 16:07:54;;;;;;;20.65;7.95;;;;;;;17.39;16.44;101519.59;5345107;33;34592;-87
2022/03/23 16:10:58;;;;;;;22.20;6.60;;;;;;;17.33;17.42;101521.22;5343034;33;35114;-86
2022/03/23 16:14:01;;;;;;;10.48;6.07;;;;;;;17.10;17.27;101513.25;5343007;33;34109;-87
2022/03/23 16:17:04;;;;;;;14.02;6.65;;;;;;;16.97;16.61;101521.28;5342731;33;35133;-87
2022/03/23 16:20:10;;;;;;;15.88;7.97;;;;;;;16.83;17.01;101517.53;5342916;33;34323;-87
2022/03/23 16:23:14;;;;;;;16.80;6.93;;;;;;;16.66;17.73;101513.31;5350154;33;35281;-87
2022/03/23 16:26:20;;;;;;;15.70;7.03;;;;;;;16.65;18.26;101519.81;5326865;33;35272;-87
2022/03/23 16:29:23;;;;;;;11.43;6.53;;;;;;;16.58;17.80;101519.69;5354926;33;33661;-87
2022/03/23 16:32:27;;;;;;;17.42;6.80;;;;;;;16.57;17.57;101517.19;5353620;33;34398;-87
2022/03/23 16:35:31;;;;;;;15.13;6.87;;;;;;;16.42;18.44;101509.88;5344425;33;34045;-88
2022/03/23 16:38:36;;;;;;;14.60;6.43;;;;;;;16.35;18.87;101514.41;5344081;33;34706;-88
2022/03/23 16:41:40;;;;;;;11.68;6.65;;;;;;;16.17;18.01;101513.91;5343030;33;34941;-88
2022/03/23 16:44:48;;;;;;;13.40;6.37;;;;;;;16.00;19.26;101511.37;5347158;33;34215;-88
2022/03/23 16:47:54;;;;;;;14.75;6.60;;;;;;;15.85;18.81;101515.94;5346476;33;33756;-88
2022/03/23 16:50:56;;;;;;;17.87;6.43;;;;;;;15.70;18.34;101518.63;5344263;33;33192;-88
2022/03/23 16:54:03;;;;;;;11.23;6.43;;;;;;;15.54;18.64;101516.03;5344597;33;33830;-88
